Time;durP1;ratioP1;P1;durP2;ratioP2;P2;SDS_P1;SDS_P2;PMS_P1;PMS_P2;Temp;Humidity;BMP_temperature;BMP_pressure;BME280_temperature;BME280_humidity;BME280_pressure;Samples;Min_cycle;Max_cycle;Signal;HPM_P1;HPM_P2
2021/09/01 00:02:18;;;;;;;9.35;5.18;;;;;;;;;;4988839;28;20149;-65
2021/09/01 00:04:46;;;;;;;7.32;4.55;;;;;;;;;;4982464;28;20791;-65
2021/09/01 00:07:14;;;;;;;9.52;5.00;;;;;;;;;;4989530;28;20044;-65
2021/09/01 00:09:43;;;;;;;9.07;4.40;;;;;;;;;;4989195;28;20082;-65
2021/09/01 00:12:11;;;;;;;7.00;4.20;;;;;;;;;;4990230;28;20048;-65
2021/09/01 00:14:39;;;;;;;10.20;4.28;;;;;;;;;;4989129;28;20043;-65
2021/09/01 00:17:09;;;;;;;9.10;5.07;;;;;;;;;;4989523;28;20117;-65
2021/09/01 00:19:37;;;;;;;8.50;5.07;;;;;;;;;;4973063;28;20073;-65
2021/09/01 00:22:06;;;;;;;8.93;4.57;;;;;;;;;;4979123;28;20042;-66
2021/09/01 00:24:35;;;;;;;8.65;5.05;;;;;;;;;;4979592;28;20081;-66
2021/09/01 00:27:03;;;;;;;8.70;4.50;;;;;;;;;;4989560;28;20957;-65
2021/09/01 00:29:32;;;;;;;9.30;4.85;;;;;;;;;;4989000;28;20081;-65
2021/09/01 00:32:00;;;;;;;12.30;5.30;;;;;;;;;;4980201;28;20050;-65
2021/09/01 00:34:30;;;;;;;9.55;5.10;;;;;;;;;;4993051;28;20231;-66
2021/09/01 00:36:58;;;;;;;11.63;5.68;;;;;;;;;;4993729;28;20133;-66
2021/09/01 00:39:26;;;;;;;7.95;4.80;;;;;;;;;;4991947;28;20057;-65
2021/09/01 00:41:54;;;;;;;9.30;4.57;;;;;;;;;;4992746;28;20207;-66
2021/09/01 00:44:27;;;;;;;10.20;5.07;;;;;;;;;;4992075;28;20047;-66
2021/09/01 00:46:55;;;;;;;10.65;5.03;;;;;;;;;;4988563;28;20047;-65
2021/09/01 00:49:24;;;;;;;9.65;5.15;;;;;;;;;;4993750;28;20060;-66
2021/09/01 00:51:54;;;;;;;10.15;5.18;;;;;;;;;;4992948;28;20133;-66
2021/09/01 00:54:23;;;;;;;12.38;5.60;;;;;;;;;;4988906;28;20055;-66
2021/09/01 00:56:53;;;;;;;13.05;5.50;;;;;;;;;;4992530;28;20051;-65
2021/09/01 00:59:21;;;;;;;9.93;5.28;;;;;;;;;;4993027;28;20482;-65
2021/09/01 01:01:50;;;;;;;9.77;5.72;;;;;;;;;;4990212;28;20057;-68
2021/09/01 01:04:19;;;;;;;8.18;4.55;;;;;;;;;;4983306;28;20069;-66
2021/09/01 01:06:47;;;;;;;10.82;5.55;;;;;;;;;;4982269;28;20050;-65
2021/09/01 01:09:17;;;;;;;8.23;5.40;;;;;;;;;;4993670;28;20050;-65
2021/09/01 01:12:05;;;;;;;9.00;4.75;;;;;;;;;;4975063;28;20442;-65
2021/09/01 01:14:34;;;;;;;9.35;4.60;;;;;;;;;;4991986;28;20050;-65
2021/09/01 01:17:03;;;;;;;11.57;4.63;;;;;;;;;;4992585;28;20058;-65
2021/09/01 01:19:31;;;;;;;9.57;5.03;;;;;;;;;;4988747;28;20054;-65
2021/09/01 01:21:59;;;;;;;10.02;5.38;;;;;;;;;;4985071;28;20129;-66
2021/09/01 01:24:42;;;;;;;10.30;4.03;;;;;;;;;;4982483;28;20043;-65
2021/09/01 01:27:19;;;;;;;9.55;4.78;;;;;;;;;;4987533;28;20059;-65
2021/09/01 01:29:47;;;;;;;8.70;4.65;;;;;;;;;;4982416;28;20057;-65
2021/09/01 01:32:16;;;;;;;8.93;4.32;;;;;;;;;;4983866;28;20074;-65
2021/09/01 01:34:44;;;;;;;9.82;4.65;;;;;;;;;;4990337;28;20506;-65
2021/09/01 01:37:12;;;;;;;10.73;5.30;;;;;;;;;;4988904;28;20046;-65
2021/09/01 01:39:40;;;;;;;8.38;5.00;;;;;;;;;;4987693;28;20053;-65
2021/09/01 01:42:09;;;;;;;7.13;4.40;;;;;;;;;;4982145;28;20414;-65
2021/09/01 01:44:38;;;;;;;10.80;4.70;;;;;;;;;;4992157;28;20058;-65
2021/09/01 01:47:06;;;;;;;9.52;5.25;;;;;;;;;;4987779;28;20050;-65
2021/09/01 01:49:35;;;;;;;8.52;4.30;;;;;;;;;;4990632;28;20140;-65
2021/09/01 01:52:03;;;;;;;9.30;4.28;;;;;;;;;;4991807;28;20046;-65
2021/09/01 01:54:31;;;;;;;8.02;4.70;;;;;;;;;;4991563;28;20042;-65
2021/09/01 01:57:00;;;;;;;7.80;5.00;;;;;;;;;;4985257;28;20053;-65
2021/09/01 01:59:28;;;;;;;8.57;4.65;;;;;;;;;;4980396;28;20063;-65
2021/09/01 02:01:58;;;;;;;10.23;4.97;;;;;;;;;;4989446;28;20592;-65
2021/09/01 02:04:26;;;;;;;7.75;4.20;;;;;;;;;;4989957;28;20050;-65
2021/09/01 02:06:54;;;;;;;10.77;4.45;;;;;;;;;;4991135;28;20134;-65
2021/09/01 02:09:23;;;;;;;10.93;5.10;;;;;;;;;;4991639;28;20080;-64
2021/09/01 02:11:51;;;;;;;9.45;4.40;;;;;;;;;;4991287;28;20054;-65
2021/09/01 02:14:19;;;;;;;12.18;5.03;;;;;;;;;;4991519;28;20157;-65
2021/09/01 02:16:47;;;;;;;9.10;4.40;;;;;;;;;;4991631;28;20133;-65
2021/09/01 02:19:17;;;;;;;6.75;4.03;;;;;;;;;;4989124;28;20057;-65
2021/09/01 02:21:45;;;;;;;8.95;4.18;;;;;;;;;;4991195;28;20390;-65
2021/09/01 02:24:13;;;;;;;7.68;3.72;;;;;;;;;;4991726;28;20058;-65
2021/09/01 02:26:42;;;;;;;8.98;4.20;;;;;;;;;;4990765;28;20217;-65
2021/09/01 02:29:10;;;;;;;6.55;3.88;;;;;;;;;;4992348;28;20470;-65
2021/09/01 02:31:38;;;;;;;6.72;3.85;;;;;;;;;;4985146;28;20046;-65
2021/09/01 02:34:06;;;;;;;13.10;4.05;;;;;;;;;;4991228;28;20046;-66
2021/09/01 02:36:36;;;;;;;11.75;4.75;;;;;;;;;;4989897;28;20410;-65
2021/09/01 02:39:04;;;;;;;7.93;4.20;;;;;;;;;;4991333;28;20061;-65
2021/09/01 02:41:33;;;;;;;9.85;4.60;;;;;;;;;;4990283;28;20422;-64
2021/09/01 02:44:01;;;;;;;7.38;3.75;;;;;;;;;;4991252;28;20050;-65
2021/09/01 02:46:29;;;;;;;10.18;4.82;;;;;;;;;;4987664;28;20059;-64
2021/09/01 02:48:58;;;;;;;8.90;4.35;;;;;;;;;;4990986;28;20711;-65
2021/09/01 02:51:26;;;;;;;8.50;3.97;;;;;;;;;;4990681;28;20061;-64
2021/09/01 02:53:55;;;;;;;9.70;4.50;;;;;;;;;;4990723;28;20046;-65
2021/09/01 02:56:24;;;;;;;7.57;3.80;;;;;;;;;;4987899;28;20130;-64
2021/09/01 02:58:52;;;;;;;8.27;3.85;;;;;;;;;;4981831;28;20137;-64
2021/09/01 03:01:20;;;;;;;9.48;4.15;;;;;;;;;;4989319;28;20443;-65
2021/09/01 03:03:49;;;;;;;7.80;4.10;;;;;;;;;;4990166;28;20494;-65
2021/09/01 03:06:17;;;;;;;11.52;4.35;;;;;;;;;;4990107;28;20057;-65
2021/09/01 03:08:45;;;;;;;7.70;4.25;;;;;;;;;;4990501;28;20576;-65
2021/09/01 03:11:15;;;;;;;7.10;4.15;;;;;;;;;;4990260;28;20148;-65
2021/09/01 03:13:43;;;;;;;10.32;4.53;;;;;;;;;;4988485;28;20137;-68
2021/09/01 03:16:12;;;;;;;7.63;4.03;;;;;;;;;;4988352;28;20434;-64
2021/09/01 03:18:40;;;;;;;8.52;4.10;;;;;;;;;;4989123;28;20452;-65
2021/09/01 03:21:09;;;;;;;10.63;4.55;;;;;;;;;;4990826;28;20255;-64
2021/09/01 03:23:38;;;;;;;12.65;5.03;;;;;;;;;;4989270;28;20046;-64
2021/09/01 03:26:06;;;;;;;9.82;4.10;;;;;;;;;;4990998;28;20113;-65
2021/09/01 03:28:55;;;;;;;6.60;3.43;;;;;;;;;;4186166;28;10002037;-64
2021/09/01 03:31:23;;;;;;;8.52;4.65;;;;;;;;;;2055911;28;10002214;-65
2021/09/01 03:33:51;;;;;;;9.50;4.22;;;;;;;;;;4989827;28;20512;-65
2021/09/01 03:36:19;;;;;;;8.18;4.45;;;;;;;;;;4982708;28;20047;-65
2021/09/01 03:38:48;;;;;;;8.07;4.43;;;;;;;;;;4984486;28;20049;-64
2021/09/01 03:41:16;;;;;;;8.02;4.22;;;;;;;;;;4990447;28;20050;-65
2021/09/01 03:43:44;;;;;;;7.75;4.13;;;;;;;;;;4989639;28;20054;-65
2021/09/01 03:46:14;;;;;;;9.38;4.18;;;;;;;;;;4987820;28;20039;-64
2021/09/01 03:48:42;;;;;;;11.43;4.40;;;;;;;;;;4989114;28;20053;-65
2021/09/01 03:51:10;;;;;;;8.48;4.53;;;;;;;;;;4990935;28;20054;-64
2021/09/01 03:53:38;;;;;;;8.50;4.57;;;;;;;;;;4988371;28;20118;-64
2021/09/01 03:56:08;;;;;;;9.90;3.67;;;;;;;;;;4989633;28;20498;-64
2021/09/01 03:58:36;;;;;;;10.23;4.15;;;;;;;;;;4972144;28;20073;-64
2021/09/01 04:01:04;;;;;;;8.73;4.30;;;;;;;;;;4988270;28;20068;-65
2021/09/01 04:03:34;;;;;;;8.63;4.05;;;;;;;;;;4987171;28;20062;-65
2021/09/01 04:06:02;;;;;;;7.88;4.03;;;;;;;;;;4988576;28;20112;-65
2021/09/01 04:08:31;;;;;;;8.05;4.25;;;;;;;;;;4989855;28;20042;-64
2021/09/01 04:10:59;;;;;;;10.25;4.93;;;;;;;;;;4990385;28;20050;-64
2021/09/01 04:13:27;;;;;;;9.13;4.20;;;;;;;;;;4987421;28;20149;-65
2021/09/01 04:15:55;;;;;;;10.50;4.80;;;;;;;;;;4989012;28;20125;-64
2021/09/01 04:18:24;;;;;;;7.72;4.18;;;;;;;;;;4988106;28;20053;-64
2021/09/01 04:20:53;;;;;;;8.00;4.65;;;;;;;;;;4988501;28;20046;-64
2021/09/01 04:23:22;;;;;;;7.30;4.00;;;;;;;;;;4989347;28;20046;-65
2021/09/01 04:25:50;;;;;;;7.70;4.55;;;;;;;;;;4989299;28;20110;-64
2021/09/01 04:28:18;;;;;;;8.20;4.13;;;;;;;;;;4986610;28;20157;-64
2021/09/01 04:30:46;;;;;;;7.50;3.83;;;;;;;;;;4984156;28;20409;-64
2021/09/01 04:33:15;;;;;;;7.88;3.95;;;;;;;;;;4977457;28;20491;-64
2021/09/01 04:35:43;;;;;;;9.45;3.80;;;;;;;;;;4989120;28;20061;-64
2021/09/01 04:38:13;;;;;;;12.18;5.53;;;;;;;;;;4988393;28;20142;-64
2021/09/01 04:40:41;;;;;;;10.57;5.95;;;;;;;;;;4989089;28;20129;-64
2021/09/01 04:43:09;;;;;;;11.05;5.45;;;;;;;;;;4988121;28;20046;-64
2021/09/01 04:45:38;;;;;;;9.60;4.55;;;;;;;;;;4988716;28;20058;-64
2021/09/01 04:48:08;;;;;;;7.40;4.00;;;;;;;;;;4988053;28;20042;-66
2021/09/01 04:50:37;;;;;;;8.68;3.90;;;;;;;;;;4989152;28;20051;-64
2021/09/01 04:53:05;;;;;;;8.65;4.38;;;;;;;;;;4973512;28;20057;-65
2021/09/01 04:55:35;;;;;;;10.15;4.20;;;;;;;;;;4989516;28;20136;-65
2021/09/01 04:58:03;;;;;;;12.00;4.38;;;;;;;;;;4978954;28;20092;-64
2021/09/01 05:00:31;;;;;;;10.02;4.68;;;;;;;;;;4977707;28;20054;-64
2021/09/01 05:03:00;;;;;;;7.13;4.38;;;;;;;;;;4989606;28;20145;-64
2021/09/01 05:05:28;;;;;;;7.28;4.07;;;;;;;;;;4984853;28;20056;-65
2021/09/01 05:07:56;;;;;;;9.20;4.55;;;;;;;;;;4989379;28;20487;-64
2021/09/01 05:10:25;;;;;;;9.10;3.60;;;;;;;;;;4988938;28;20086;-64
2021/09/01 05:12:54;;;;;;;7.85;4.35;;;;;;;;;;4989815;28;20129;-64
2021/09/01 05:15:23;;;;;;;8.77;3.75;;;;;;;;;;4988224;28;20056;-65
2021/09/01 05:17:51;;;;;;;7.32;3.63;;;;;;;;;;4985517;28;20081;-64
2021/09/01 05:20:19;;;;;;;6.43;3.60;;;;;;;;;;4992154;28;20134;-66
2021/09/01 05:22:49;;;;;;;6.47;3.08;;;;;;;;;;4992185;28;20157;-64
2021/09/01 05:25:19;;;;;;;5.72;3.55;;;;;;;;;;4989293;28;20069;-64
2021/09/01 05:27:50;;;;;;;8.80;3.33;;;;;;;;;;4992371;28;20553;-64
2021/09/01 05:30:20;;;;;;;6.95;3.67;;;;;;;;;;4992861;28;20078;-64
2021/09/01 05:32:50;;;;;;;8.98;3.58;;;;;;;;;;4992727;28;20503;-64
2021/09/01 05:35:18;;;;;;;8.05;3.85;;;;;;;;;;4990691;28;20069;-64
2021/09/01 05:37:47;;;;;;;6.65;4.00;;;;;;;;;;4992597;28;20073;-64
2021/09/01 05:40:15;;;;;;;9.30;3.75;;;;;;;;;;4986188;28;20133;-65
2021/09/01 05:42:43;;;;;;;6.45;3.72;;;;;;;;;;4982896;28;20398;-64
2021/09/01 05:45:12;;;;;;;8.30;3.67;;;;;;;;;;4984905;28;20050;-64
2021/09/01 05:47:41;;;;;;;8.27;4.32;;;;;;;;;;4990274;28;20168;-65
2021/09/01 05:50:10;;;;;;;10.98;4.15;;;;;;;;;;4990254;28;20042;-65
2021/09/01 05:52:38;;;;;;;7.53;3.70;;;;;;;;;;4989129;28;20137;-65
2021/09/01 05:55:10;;;;;;;12.07;4.07;;;;;;;;;;4985449;28;20145;-65
2021/09/01 05:57:39;;;;;;;10.82;4.35;;;;;;;;;;4976073;28;20051;-64
2021/09/01 06:00:09;;;;;;;6.72;4.18;;;;;;;;;;4983464;28;20061;-64
2021/09/01 06:02:46;;;;;;;11.60;4.38;;;;;;;;;;4983684;28;20484;-64
2021/09/01 06:05:16;;;;;;;10.07;4.60;;;;;;;;;;4988693;28;20053;-66
2021/09/01 06:07:48;;;;;;;8.15;4.03;;;;;;;;;;4986274;28;20054;-64
2021/09/01 06:10:20;;;;;;;8.30;4.13;;;;;;;;;;4988600;28;20065;-65
2021/09/01 06:12:49;;;;;;;6.28;4.03;;;;;;;;;;4982713;28;20049;-64
2021/09/01 06:15:17;;;;;;;8.45;4.30;;;;;;;;;;4985608;28;20050;-66
2021/09/01 06:17:46;;;;;;;11.27;4.15;;;;;;;;;;4987680;28;20061;-65
2021/09/01 06:20:15;;;;;;;11.02;4.82;;;;;;;;;;4970583;28;20047;-65
2021/09/01 06:22:43;;;;;;;7.78;4.57;;;;;;;;;;4980556;28;20494;-64
2021/09/01 06:25:12;;;;;;;10.73;6.32;;;;;;;;;;4981923;28;20057;-64
2021/09/01 06:27:40;;;;;;;11.65;5.50;;;;;;;;;;4986655;28;20925;-64
2021/09/01 06:30:09;;;;;;;14.10;6.45;;;;;;;;;;4986861;28;20422;-64
2021/09/01 06:32:37;;;;;;;11.10;5.20;;;;;;;;;;4982663;28;20141;-65
2021/09/01 06:35:08;;;;;;;12.93;6.45;;;;;;;;;;4975098;28;20057;-64
2021/09/01 06:37:37;;;;;;;14.77;7.00;;;;;;;;;;4983680;28;20054;-65
2021/09/01 06:40:06;;;;;;;14.98;8.07;;;;;;;;;;4975784;28;20050;-64
2021/09/01 06:42:35;;;;;;;16.70;7.35;;;;;;;;;;4967628;28;20042;-65
2021/09/01 06:45:03;;;;;;;16.42;8.35;;;;;;;;;;4980842;28;20086;-64
2021/09/01 06:47:38;;;;;;;15.15;7.78;;;;;;;;;;4986671;28;20057;-65
2021/09/01 06:50:09;;;;;;;17.50;8.60;;;;;;;;;;4984842;28;20495;-64
2021/09/01 06:52:37;;;;;;;21.58;8.40;;;;;;;;;;4983037;28;20133;-64
2021/09/01 06:55:06;;;;;;;16.17;9.07;;;;;;;;;;4986617;28;20084;-65
2021/09/01 06:57:34;;;;;;;22.10;9.50;;;;;;;;;;4980254;28;20069;-64
2021/09/01 07:00:04;;;;;;;17.63;8.75;;;;;;;;;;4988119;28;20133;-64
2021/09/01 07:02:33;;;;;;;13.63;7.57;;;;;;;;;;4981835;28;20078;-66
2021/09/01 07:05:02;;;;;;;19.23;8.05;;;;;;;;;;4978637;28;20435;-65
2021/09/01 07:07:33;;;;;;;16.48;7.93;;;;;;;;;;4985031;28;20057;-67
2021/09/01 07:10:01;;;;;;;16.38;7.68;;;;;;;;;;4982268;28;20050;-67
2021/09/01 07:12:30;;;;;;;15.73;7.25;;;;;;;;;;4985830;28;20054;-64
2021/09/01 07:14:58;;;;;;;16.20;8.18;;;;;;;;;;4984705;28;20525;-65
2021/09/01 07:17:27;;;;;;;14.27;6.82;;;;;;;;;;4984770;28;20418;-64
2021/09/01 07:19:56;;;;;;;14.13;7.10;;;;;;;;;;4985515;28;20474;-63
2021/09/01 07:22:31;;;;;;;13.32;6.75;;;;;;;;;;4985688;28;20046;-63
2021/09/01 07:25:01;;;;;;;12.85;6.68;;;;;;;;;;4986128;28;20112;-64
2021/09/01 07:27:30;;;;;;;18.58;7.45;;;;;;;;;;4983334;28;20059;-66
2021/09/01 07:29:58;;;;;;;14.75;8.30;;;;;;;;;;4985757;28;20565;-64
2021/09/01 07:32:27;;;;;;;14.88;8.75;;;;;;;;;;4976082;28;20169;-66
2021/09/01 07:34:55;;;;;;;18.45;9.50;;;;;;;;;;4985541;28;20096;-64
2021/09/01 07:37:24;;;;;;;15.77;7.57;;;;;;;;;;4986807;28;20073;-63
2021/09/01 07:39:52;;;;;;;16.17;8.63;;;;;;;;;;4977096;28;20276;-64
2021/09/01 07:42:22;;;;;;;13.10;7.20;;;;;;;;;;4974533;28;20491;-64
2021/09/01 07:44:51;;;;;;;17.35;8.07;;;;;;;;;;4976830;28;20559;-64
2021/09/01 07:47:19;;;;;;;15.05;8.20;;;;;;;;;;4985072;28;20054;-64
2021/09/01 07:49:48;;;;;;;13.77;7.07;;;;;;;;;;4979717;28;20120;-66
2021/09/01 07:52:16;;;;;;;15.70;8.20;;;;;;;;;;4978247;28;20047;-64
2021/09/01 07:54:45;;;;;;;14.50;7.70;;;;;;;;;;4973034;28;20054;-64
2021/09/01 07:57:14;;;;;;;14.00;7.80;;;;;;;;;;4975418;28;20097;-66
2021/09/01 07:59:43;;;;;;;12.70;7.38;;;;;;;;;;4979516;28;20078;-64
2021/09/01 08:02:12;;;;;;;10.60;6.28;;;;;;;;;;4981034;28;20506;-65
2021/09/01 08:04:40;;;;;;;17.15;8.98;;;;;;;;;;4981225;28;20062;-64
2021/09/01 08:07:09;;;;;;;14.35;7.93;;;;;;;;;;4984455;28;20058;-63
2021/09/01 08:09:38;;;;;;;15.30;7.60;;;;;;;;;;4985051;28;20054;-64
2021/09/01 08:12:07;;;;;;;15.90;7.80;;;;;;;;;;4979416;28;20074;-64
2021/09/01 08:14:36;;;;;;;12.93;7.68;;;;;;;;;;4976036;28;20112;-67
2021/09/01 08:17:06;;;;;;;14.02;7.03;;;;;;;;;;4976843;28;20453;-63
2021/09/01 08:19:34;;;;;;;12.57;6.97;;;;;;;;;;4984137;28;20069;-63
2021/09/01 08:22:03;;;;;;;12.65;6.93;;;;;;;;;;4977623;28;20050;-66
2021/09/01 08:24:31;;;;;;;13.90;7.30;;;;;;;;;;4979345;28;20485;-63
2021/09/01 08:27:00;;;;;;;15.68;7.50;;;;;;;;;;4976458;28;20054;-69
2021/09/01 08:29:28;;;;;;;12.30;7.20;;;;;;;;;;4976213;28;20866;-67
2021/09/01 08:31:57;;;;;;;10.77;5.65;;;;;;;;;;4973511;28;20046;-64
2021/09/01 08:34:27;;;;;;;11.77;6.38;;;;;;;;;;4980973;28;20070;-64
2021/09/01 08:36:56;;;;;;;10.68;6.70;;;;;;;;;;4974571;28;20074;-63
2021/09/01 08:39:24;;;;;;;10.93;5.75;;;;;;;;;;4973209;28;20053;-66
2021/09/01 08:41:54;;;;;;;11.68;6.18;;;;;;;;;;4966321;28;20058;-64
2021/09/01 08:44:22;;;;;;;9.57;5.90;;;;;;;;;;4974575;28;20046;-65
2021/09/01 08:46:51;;;;;;;11.48;5.93;;;;;;;;;;4980866;28;20093;-65
2021/09/01 08:49:20;;;;;;;11.20;6.03;;;;;;;;;;4983300;28;20097;-66
2021/09/01 08:51:51;;;;;;;11.07;5.82;;;;;;;;;;4986249;28;20539;-63
2021/09/01 08:54:20;;;;;;;9.30;5.18;;;;;;;;;;4981223;28;20494;-65
2021/09/01 08:56:49;;;;;;;9.10;5.18;;;;;;;;;;4984903;28;20043;-63
2021/09/01 08:59:18;;;;;;;8.70;4.47;;;;;;;;;;4988149;28;20409;-64
2021/09/01 09:01:47;;;;;;;9.48;4.90;;;;;;;;;;4986461;28;20046;-64
2021/09/01 09:04:18;;;;;;;10.57;5.53;;;;;;;;;;4984509;28;20073;-65
2021/09/01 09:06:52;;;;;;;8.02;4.53;;;;;;;;;;4987527;28;20365;-63
2021/09/01 09:09:22;;;;;;;9.03;4.73;;;;;;;;;;4985079;28;20553;-64
2021/09/01 09:11:51;;;;;;;9.90;4.78;;;;;;;;;;4982535;28;20073;-64
2021/09/01 09:14:25;;;;;;;10.50;5.68;;;;;;;;;;4986100;28;20054;-66
2021/09/01 09:17:04;;;;;;;10.63;5.25;;;;;;;;;;4984563;28;20054;-63
2021/09/01 09:19:49;;;;;;;8.20;4.75;;;;;;;;;;4987143;28;20061;-63
2021/09/01 09:22:27;;;;;;;9.60;4.40;;;;;;;;;;4985263;28;20054;-64
2021/09/01 09:25:03;;;;;;;9.88;4.18;;;;;;;;;;4984688;28;20065;-64
2021/09/01 09:27:40;;;;;;;12.07;5.22;;;;;;;;;;4982133;28;20315;-64
2021/09/01 09:30:23;;;;;;;7.20;3.67;;;;;;;;;;4976447;28;20105;-63
2021/09/01 09:32:56;;;;;;;9.02;4.80;;;;;;;;;;4982085;28;20420;-64
2021/09/01 09:35:25;;;;;;;9.63;4.38;;;;;;;;;;4984299;28;20100;-64
2021/09/01 09:38:05;;;;;;;8.80;4.65;;;;;;;;;;4981656;28;20393;-64
2021/09/01 09:40:35;;;;;;;6.53;3.83;;;;;;;;;;4981893;28;20498;-64
2021/09/01 09:43:14;;;;;;;7.15;4.70;;;;;;;;;;4977933;28;20519;-64
2021/09/01 09:45:43;;;;;;;9.05;4.28;;;;;;;;;;4981009;28;20057;-64
2021/09/01 09:48:11;;;;;;;6.43;4.40;;;;;;;;;;4973859;28;20454;-64
2021/09/01 09:50:47;;;;;;;6.82;4.03;;;;;;;;;;4979375;28;20137;-65
2021/09/01 09:53:29;;;;;;;7.25;4.00;;;;;;;;;;4971229;28;20054;-66
2021/09/01 09:56:03;;;;;;;6.65;3.70;;;;;;;;;;4962806;28;20142;-65
2021/09/01 09:58:33;;;;;;;6.60;4.05;;;;;;;;;;4976805;28;20056;-65
2021/09/01 10:01:04;;;;;;;7.65;4.47;;;;;;;;;;4984662;28;20042;-64
2021/09/01 10:03:33;;;;;;;7.57;4.28;;;;;;;;;;4981743;28;20112;-66
2021/09/01 10:06:02;;;;;;;7.32;3.88;;;;;;;;;;4986086;28;20058;-63
2021/09/01 10:08:33;;;;;;;7.32;4.13;;;;;;;;;;4986548;28;20050;-65
2021/09/01 10:11:02;;;;;;;9.85;3.75;;;;;;;;;;4980484;28;20054;-64
2021/09/01 10:13:31;;;;;;;5.90;3.92;;;;;;;;;;4975464;28;20057;-64
2021/09/01 10:16:02;;;;;;;6.32;3.65;;;;;;;;;;4982353;28;20525;-64
2021/09/01 10:18:32;;;;;;;8.55;3.92;;;;;;;;;;4984219;28;20057;-64
2021/09/01 10:21:01;;;;;;;6.25;3.72;;;;;;;;;;4981813;28;20133;-65
2021/09/01 10:23:38;;;;;;;8.85;4.05;;;;;;;;;;4985051;28;20053;-64
2021/09/01 10:26:25;;;;;;;6.75;3.90;;;;;;;;;;4987745;28;20047;-65
2021/09/01 10:28:54;;;;;;;5.28;3.28;;;;;;;;;;4975165;28;20039;-64
2021/09/01 10:31:24;;;;;;;5.90;3.22;;;;;;;;;;4983646;28;20050;-64
2021/09/01 10:33:53;;;;;;;7.00;3.63;;;;;;;;;;4983367;28;20054;-64
2021/09/01 10:36:41;;;;;;;6.53;3.88;;;;;;;;;;4989307;28;20157;-64
2021/09/01 10:39:18;;;;;;;4.68;2.90;;;;;;;;;;4986198;28;20042;-63
2021/09/01 10:41:46;;;;;;;6.60;3.47;;;;;;;;;;4977148;28;20610;-64
2021/09/01 10:44:21;;;;;;;6.30;3.15;;;;;;;;;;4987380;28;20072;-64
2021/09/01 10:47:02;;;;;;;5.72;3.00;;;;;;;;;;4989663;28;20077;-64
2021/09/01 10:49:45;;;;;;;6.57;3.30;;;;;;;;;;4985423;28;20137;-64
2021/09/01 10:52:13;;;;;;;7.65;3.80;;;;;;;;;;4986201;28;20062;-65
2021/09/01 10:54:43;;;;;;;6.50;3.70;;;;;;;;;;4988560;28;20117;-64
2021/09/01 10:57:22;;;;;;;4.55;3.17;;;;;;;;;;4978420;28;20507;-65
2021/09/01 10:59:50;;;;;;;5.53;3.05;;;;;;;;;;4986894;28;20585;-65
2021/09/01 11:02:19;;;;;;;5.65;3.13;;;;;;;;;;4987184;28;20081;-65
2021/09/01 11:04:49;;;;;;;4.95;2.72;;;;;;;;;;4982279;28;20042;-65
2021/09/01 11:07:21;;;;;;;4.35;2.88;;;;;;;;;;4979680;28;20061;-66
2021/09/01 11:09:55;;;;;;;4.65;2.80;;;;;;;;;;4986810;28;20054;-64
2021/09/01 11:12:24;;;;;;;5.35;3.53;;;;;;;;;;4985960;28;20042;-65
2021/09/01 11:14:53;;;;;;;5.40;3.03;;;;;;;;;;4985893;28;20101;-65
2021/09/01 11:17:22;;;;;;;6.85;3.08;;;;;;;;;;4982168;28;20222;-64
2021/09/01 11:19:53;;;;;;;7.72;3.47;;;;;;;;;;4981573;28;20054;-66
2021/09/01 11:22:23;;;;;;;5.60;3.30;;;;;;;;;;4981717;28;20038;-66
2021/09/01 11:24:54;;;;;;;4.68;3.13;;;;;;;;;;4981323;28;20086;-66
2021/09/01 11:27:24;;;;;;;5.28;3.20;;;;;;;;;;4981126;28;20195;-65
2021/09/01 11:29:52;;;;;;;5.60;3.40;;;;;;;;;;4977166;28;20054;-65
2021/09/01 11:32:22;;;;;;;7.65;3.58;;;;;;;;;;4979218;28;20051;-64
2021/09/01 11:34:50;;;;;;;5.15;2.83;;;;;;;;;;4980090;28;20081;-64
2021/09/01 11:37:20;;;;;;;5.80;3.38;;;;;;;;;;4981007;28;20410;-65
2021/09/01 11:39:49;;;;;;;5.55;3.00;;;;;;;;;;4980579;28;20093;-66
2021/09/01 11:42:34;;;;;;;6.40;3.30;;;;;;;;;;4978871;28;20513;-64
2021/09/01 11:45:08;;;;;;;5.05;3.10;;;;;;;;;;4979868;28;20042;-66
2021/09/01 11:47:41;;;;;;;5.85;3.25;;;;;;;;;;4979402;28;20429;-64
2021/09/01 11:50:10;;;;;;;4.50;2.80;;;;;;;;;;4978666;28;20148;-64
2021/09/01 11:52:38;;;;;;;4.38;3.17;;;;;;;;;;4973842;28;20573;-65
2021/09/01 11:55:07;;;;;;;4.65;3.00;;;;;;;;;;4975256;28;20049;-66
2021/09/01 11:57:37;;;;;;;5.78;3.28;;;;;;;;;;4979225;28;20453;-65
2021/09/01 12:00:07;;;;;;;7.70;3.50;;;;;;;;;;4981280;28;20054;-64
2021/09/01 12:02:36;;;;;;;6.00;3.10;;;;;;;;;;4981687;28;20058;-64
2021/09/01 12:05:04;;;;;;;5.68;3.00;;;;;;;;;;4980485;28;20650;-64
2021/09/01 12:07:34;;;;;;;5.93;3.33;;;;;;;;;;4977681;28;20081;-66
2021/09/01 12:10:04;;;;;;;5.88;3.17;;;;;;;;;;4980798;28;20082;-65
2021/09/01 12:12:34;;;;;;;4.90;3.33;;;;;;;;;;4981803;28;20077;-66
2021/09/01 12:15:11;;;;;;;4.97;3.03;;;;;;;;;;4979268;28;20607;-66
2021/09/01 12:17:40;;;;;;;7.20;2.75;;;;;;;;;;4980821;28;20390;-65
2021/09/01 12:20:12;;;;;;;6.07;3.30;;;;;;;;;;4978263;28;20054;-65
2021/09/01 12:22:42;;;;;;;6.43;2.67;;;;;;;;;;4981030;28;20533;-65
2021/09/01 12:25:12;;;;;;;6.10;2.72;;;;;;;;;;4977757;28;20070;-64
2021/09/01 12:27:41;;;;;;;5.30;3.00;;;;;;;;;;4984980;28;20131;-65
2021/09/01 12:30:12;;;;;;;5.25;2.78;;;;;;;;;;4986439;28;20053;-65
2021/09/01 12:32:40;;;;;;;5.40;3.03;;;;;;;;;;4988918;28;20050;-64
2021/09/01 12:35:09;;;;;;;5.55;4.18;;;;;;;;;;4984430;28;20100;-64
2021/09/01 12:37:39;;;;;;;6.43;3.70;;;;;;;;;;4986149;28;20141;-64
2021/09/01 12:40:08;;;;;;;4.75;3.00;;;;;;;;;;4981687;28;20050;-65
2021/09/01 12:42:39;;;;;;;5.50;2.92;;;;;;;;;;4985682;28;20050;-63
2021/09/01 12:45:08;;;;;;;5.57;3.33;;;;;;;;;;4984694;28;20109;-64
2021/09/01 12:47:52;;;;;;;6.90;4.03;;;;;;;;;;4985474;28;20541;-64
2021/09/01 12:50:21;;;;;;;5.28;3.22;;;;;;;;;;4981628;28;20069;-65
2021/09/01 12:52:49;;;;;;;7.20;4.25;;;;;;;;;;4985726;28;20058;-65
2021/09/01 12:55:18;;;;;;;4.55;2.90;;;;;;;;;;4983802;28;20082;-65
2021/09/01 12:57:46;;;;;;;6.50;3.50;;;;;;;;;;4984495;28;20144;-64
2021/09/01 13:00:15;;;;;;;5.68;3.33;;;;;;;;;;4985567;28;20039;-64
2021/09/01 13:02:45;;;;;;;5.43;3.30;;;;;;;;;;4982426;28;20262;-63
2021/09/01 13:05:13;;;;;;;5.22;3.10;;;;;;;;;;4984666;28;20080;-64
2021/09/01 13:07:42;;;;;;;8.88;4.20;;;;;;;;;;4985650;28;20114;-65
2021/09/01 13:10:11;;;;;;;4.88;3.25;;;;;;;;;;4986886;28;20180;-64
2021/09/01 13:12:39;;;;;;;4.35;2.97;;;;;;;;;;4987945;28;20133;-65
2021/09/01 13:15:09;;;;;;;5.32;3.08;;;;;;;;;;4980065;28;20108;-64
2021/09/01 13:17:42;;;;;;;4.90;3.35;;;;;;;;;;4986566;28;20050;-65
2021/09/01 13:20:13;;;;;;;6.55;4.57;;;;;;;;;;4986344;28;20530;-65
2021/09/01 13:22:42;;;;;;;7.35;3.55;;;;;;;;;;4985697;28;20046;-64
2021/09/01 13:25:12;;;;;;;7.00;4.13;;;;;;;;;;4984458;28;20054;-64
2021/09/01 13:27:41;;;;;;;5.30;3.00;;;;;;;;;;4982934;28;20042;-64
2021/09/01 13:30:11;;;;;;;5.65;3.25;;;;;;;;;;4985239;28;20133;-65
2021/09/01 13:32:40;;;;;;;4.43;2.95;;;;;;;;;;4985153;28;20048;-65
2021/09/01 13:35:09;;;;;;;5.35;2.83;;;;;;;;;;4985009;28;20108;-65
2021/09/01 13:37:39;;;;;;;6.70;4.18;;;;;;;;;;4983834;28;20161;-64
2021/09/01 13:40:08;;;;;;;4.95;3.00;;;;;;;;;;4982455;28;20475;-64
2021/09/01 13:42:37;;;;;;;4.10;2.60;;;;;;;;;;4985550;28;20466;-64
2021/09/01 13:45:06;;;;;;;5.90;3.72;;;;;;;;;;4985266;28;20053;-63
2021/09/01 13:47:34;;;;;;;4.25;2.85;;;;;;;;;;4984613;28;20046;-65
2021/09/01 13:50:03;;;;;;;7.05;3.25;;;;;;;;;;4984270;28;20055;-65
2021/09/01 13:52:32;;;;;;;5.47;3.67;;;;;;;;;;4975449;28;20046;-64
2021/09/01 13:55:03;;;;;;;4.72;3.10;;;;;;;;;;4974158;28;20427;-64
2021/09/01 13:57:31;;;;;;;7.10;3.67;;;;;;;;;;4984444;28;20046;-63
2021/09/01 14:00:05;;;;;;;7.13;3.33;;;;;;;;;;4990285;28;20096;-64
2021/09/01 14:02:34;;;;;;;7.28;3.15;;;;;;;;;;4983095;28;20753;-63
2021/09/01 14:05:03;;;;;;;5.32;3.85;;;;;;;;;;4985184;28;20395;-63
2021/09/01 14:07:31;;;;;;;5.03;3.20;;;;;;;;;;4986275;28;20132;-63
2021/09/01 14:10:00;;;;;;;6.65;3.50;;;;;;;;;;4986026;28;20426;-63
2021/09/01 14:12:29;;;;;;;4.53;2.45;;;;;;;;;;4987573;28;20507;-64
2021/09/01 14:14:58;;;;;;;3.80;2.63;;;;;;;;;;4990042;28;20094;-63
2021/09/01 14:17:26;;;;;;;5.50;3.70;;;;;;;;;;4989886;28;20184;-63
2021/09/01 14:19:55;;;;;;;4.35;2.92;;;;;;;;;;4988060;28;20078;-63
2021/09/01 14:22:23;;;;;;;6.68;3.78;;;;;;;;;;4989260;28;20042;-64
2021/09/01 14:24:52;;;;;;;4.47;2.70;;;;;;;;;;4984010;28;20046;-65
2021/09/01 14:27:20;;;;;;;5.03;3.25;;;;;;;;;;4989250;28;20377;-64
2021/09/01 14:29:50;;;;;;;5.85;3.22;;;;;;;;;;4990812;28;20046;-64
2021/09/01 14:32:18;;;;;;;6.03;3.35;;;;;;;;;;4984758;28;20103;-64
2021/09/01 14:34:47;;;;;;;5.13;3.20;;;;;;;;;;4986921;28;20104;-63
2021/09/01 14:37:15;;;;;;;4.18;2.67;;;;;;;;;;4986382;28;20374;-64
2021/09/01 14:39:44;;;;;;;6.18;3.40;;;;;;;;;;4989117;28;20046;-64
2021/09/01 14:42:13;;;;;;;6.47;3.70;;;;;;;;;;4981406;28;20046;-64
2021/09/01 14:44:42;;;;;;;6.05;3.28;;;;;;;;;;4985013;28;20046;-65
2021/09/01 14:47:11;;;;;;;6.88;3.30;;;;;;;;;;4987631;28;20130;-64
2021/09/01 14:49:40;;;;;;;5.80;3.08;;;;;;;;;;4983354;28;20057;-64
2021/09/01 14:52:09;;;;;;;4.30;3.13;;;;;;;;;;4989346;28;20050;-65
2021/09/01 14:54:37;;;;;;;5.30;3.60;;;;;;;;;;4988483;28;20050;-64